sensor_id;sensor_type;location;lat;lon;timestamp;P1;durP1;ratioP1;P2;durP2;ratioP2
56893;SDS011;43392;50.078;13.704;2023-10-31T00:00:50;32.55;;;19.08;;
56893;SDS011;43392;50.078;13.704;2023-10-31T00:03:17;32.80;;;20.38;;
56893;SDS011;43392;50.078;13.704;2023-10-31T00:05:43;34.03;;;20.15;;
56893;SDS011;43392;50.078;13.704;2023-10-31T00:08:10;40.67;;;22.77;;
56893;SDS011;43392;50.078;13.704;2023-10-31T00:10:37;36.90;;;21.42;;
56893;SDS011;43392;50.078;13.704;2023-10-31T00:13:03;38.58;;;22.33;;
56893;SDS011;43392;50.078;13.704;2023-10-31T00:15:30;39.10;;;21.85;;
56893;SDS011;43392;50.078;13.704;2023-10-31T00:17:58;38.55;;;22.63;;
56893;SDS011;43392;50.078;13.704;2023-10-31T00:20:24;39.78;;;23.50;;
56893;SDS011;43392;50.078;13.704;2023-10-31T00:22:51;38.05;;;23.95;;
56893;SDS011;43392;50.078;13.704;2023-10-31T00:25:18;39.15;;;23.17;;
56893;SDS011;43392;50.078;13.704;2023-10-31T00:27:44;39.13;;;24.00;;
56893;SDS011;43392;50.078;13.704;2023-10-31T00:30:11;42.30;;;25.00;;
56893;SDS011;43392;50.078;13.704;2023-10-31T00:32:38;39.33;;;24.65;;
56893;SDS011;43392;50.078;13.704;2023-10-31T00:35:06;35.78;;;22.95;;
56893;SDS011;43392;50.078;13.704;2023-10-31T00:37:33;38.25;;;23.67;;
56893;SDS011;43392;50.078;13.704;2023-10-31T00:40:00;34.10;;;22.42;;
56893;SDS011;43392;50.078;13.704;2023-10-31T00:42:27;34.45;;;22.15;;
56893;SDS011;43392;50.078;13.704;2023-10-31T00:44:53;35.28;;;21.65;;
56893;SDS011;43392;50.078;13.704;2023-10-31T00:47:20;33.50;;;21.15;;
56893;SDS011;43392;50.078;13.704;2023-10-31T00:49:46;33.50;;;21.05;;
56893;SDS011;43392;50.078;13.704;2023-10-31T00:52:14;32.42;;;20.38;;
56893;SDS011;43392;50.078;13.704;2023-10-31T00:54:41;29.98;;;19.67;;
56893;SDS011;43392;50.078;13.704;2023-10-31T00:57:08;30.85;;;20.52;;
56893;SDS011;43392;50.078;13.704;2023-10-31T00:59:34;32.63;;;20.10;;
56893;SDS011;43392;50.078;13.704;2023-10-31T01:02:01;30.98;;;20.05;;
56893;SDS011;43392;50.078;13.704;2023-10-31T01:04:28;27.48;;;19.00;;
56893;SDS011;43392;50.078;13.704;2023-10-31T01:06:54;30.35;;;19.88;;
56893;SDS011;43392;50.078;13.704;2023-10-31T01:09:22;34.38;;;20.10;;
56893;SDS011;43392;50.078;13.704;2023-10-31T01:11:49;34.85;;;21.92;;
56893;SDS011;43392;50.078;13.704;2023-10-31T01:14:15;29.17;;;20.40;;
56893;SDS011;43392;50.078;13.704;2023-10-31T01:16:42;32.92;;;20.60;;
56893;SDS011;43392;50.078;13.704;2023-10-31T01:19:09;30.45;;;19.38;;
56893;SDS011;43392;50.078;13.704;2023-10-31T01:21:36;30.02;;;20.52;;
56893;SDS011;43392;50.078;13.704;2023-10-31T01:24:02;28.27;;;20.02;;
56893;SDS011;43392;50.078;13.704;2023-10-31T01:26:31;32.17;;;21.25;;
56893;SDS011;43392;50.078;13.704;2023-10-31T01:28:57;32.58;;;21.83;;
56893;SDS011;43392;50.078;13.704;2023-10-31T01:31:24;30.77;;;20.88;;
56893;SDS011;43392;50.078;13.704;2023-10-31T01:33:50;32.90;;;21.13;;
56893;SDS011;43392;50.078;13.704;2023-10-31T01:36:17;28.38;;;19.88;;
56893;SDS011;43392;50.078;13.704;2023-10-31T01:38:44;26.92;;;18.83;;
56893;SDS011;43392;50.078;13.704;2023-10-31T01:41:11;28.98;;;18.60;;
56893;SDS011;43392;50.078;13.704;2023-10-31T01:43:39;26.88;;;17.10;;
56893;SDS011;43392;50.078;13.704;2023-10-31T01:46:07;24.98;;;16.80;;
56893;SDS011;43392;50.078;13.704;2023-10-31T01:48:33;25.65;;;17.27;;
56893;SDS011;43392;50.078;13.704;2023-10-31T01:51:01;26.05;;;18.08;;
56893;SDS011;43392;50.078;13.704;2023-10-31T01:53:30;26.27;;;17.92;;
56893;SDS011;43392;50.078;13.704;2023-10-31T01:55:58;27.15;;;16.77;;
56893;SDS011;43392;50.078;13.704;2023-10-31T01:58:28;26.65;;;17.88;;
56893;SDS011;43392;50.078;13.704;2023-10-31T02:00:58;27.17;;;16.90;;
56893;SDS011;43392;50.078;13.704;2023-10-31T02:03:26;26.63;;;16.83;;
56893;SDS011;43392;50.078;13.704;2023-10-31T02:05:53;25.23;;;16.25;;
56893;SDS011;43392;50.078;13.704;2023-10-31T02:08:20;21.63;;;15.00;;
56893;SDS011;43392;50.078;13.704;2023-10-31T02:10:46;21.15;;;14.70;;
56893;SDS011;43392;50.078;13.704;2023-10-31T02:13:13;23.15;;;15.00;;
56893;SDS011;43392;50.078;13.704;2023-10-31T02:15:41;23.13;;;14.48;;
56893;SDS011;43392;50.078;13.704;2023-10-31T02:18:09;20.52;;;14.23;;
56893;SDS011;43392;50.078;13.704;2023-10-31T02:20:36;22.42;;;14.75;;
56893;SDS011;43392;50.078;13.704;2023-10-31T02:23:04;19.17;;;13.02;;
56893;SDS011;43392;50.078;13.704;2023-10-31T02:25:31;20.65;;;13.45;;
56893;SDS011;43392;50.078;13.704;2023-10-31T02:27:58;20.05;;;13.30;;
56893;SDS011;43392;50.078;13.704;2023-10-31T02:30:24;20.92;;;13.07;;
56893;SDS011;43392;50.078;13.704;2023-10-31T02:32:51;19.15;;;13.35;;
56893;SDS011;43392;50.078;13.704;2023-10-31T02:35:18;20.85;;;13.98;;
56893;SDS011;43392;50.078;13.704;2023-10-31T02:37:45;18.90;;;13.27;;
56893;SDS011;43392;50.078;13.704;2023-10-31T02:40:13;18.83;;;12.63;;
56893;SDS011;43392;50.078;13.704;2023-10-31T02:42:40;18.75;;;12.70;;
56893;SDS011;43392;50.078;13.704;2023-10-31T02:45:07;17.40;;;12.00;;
56893;SDS011;43392;50.078;13.704;2023-10-31T02:47:34;15.73;;;10.98;;
56893;SDS011;43392;50.078;13.704;2023-10-31T02:50:01;18.80;;;12.05;;
56893;SDS011;43392;50.078;13.704;2023-10-31T02:52:28;16.33;;;11.23;;
56893;SDS011;43392;50.078;13.704;2023-10-31T02:54:54;14.13;;;10.05;;
56893;SDS011;43392;50.078;13.704;2023-10-31T02:57:22;16.48;;;10.57;;
56893;SDS011;43392;50.078;13.704;2023-10-31T02:59:49;15.30;;;10.50;;
56893;SDS011;43392;50.078;13.704;2023-10-31T03:02:15;14.90;;;9.38;;
56893;SDS011;43392;50.078;13.704;2023-10-31T03:04:42;13.18;;;9.43;;
56893;SDS011;43392;50.078;13.704;2023-10-31T03:07:09;13.82;;;9.23;;
56893;SDS011;43392;50.078;13.704;2023-10-31T03:09:35;11.95;;;8.63;;
56893;SDS011;43392;50.078;13.704;2023-10-31T03:12:02;14.15;;;8.82;;
56893;SDS011;43392;50.078;13.704;2023-10-31T03:14:30;11.70;;;7.68;;
56893;SDS011;43392;50.078;13.704;2023-10-31T03:16:57;11.50;;;8.02;;
56893;SDS011;43392;50.078;13.704;2023-10-31T03:19:23;10.70;;;7.50;;
56893;SDS011;43392;50.078;13.704;2023-10-31T03:21:50;10.65;;;7.78;;
56893;SDS011;43392;50.078;13.704;2023-10-31T03:24:16;10.15;;;7.10;;
56893;SDS011;43392;50.078;13.704;2023-10-31T03:26:43;10.85;;;7.07;;
56893;SDS011;43392;50.078;13.704;2023-10-31T03:29:10;9.63;;;6.60;;
56893;SDS011;43392;50.078;13.704;2023-10-31T03:31:37;8.93;;;6.30;;
56893;SDS011;43392;50.078;13.704;2023-10-31T03:34:04;9.45;;;5.80;;
56893;SDS011;43392;50.078;13.704;2023-10-31T03:36:31;9.10;;;6.03;;
56893;SDS011;43392;50.078;13.704;2023-10-31T03:38:58;8.73;;;5.57;;
56893;SDS011;43392;50.078;13.704;2023-10-31T03:41:24;8.77;;;5.45;;
56893;SDS011;43392;50.078;13.704;2023-10-31T03:43:51;10.40;;;5.80;;
56893;SDS011;43392;50.078;13.704;2023-10-31T03:46:17;8.63;;;5.85;;
56893;SDS011;43392;50.078;13.704;2023-10-31T03:48:45;9.95;;;5.75;;
56893;SDS011;43392;50.078;13.704;2023-10-31T03:51:12;9.45;;;5.53;;
56893;SDS011;43392;50.078;13.704;2023-10-31T03:53:38;9.80;;;5.82;;
56893;SDS011;43392;50.078;13.704;2023-10-31T03:56:05;8.05;;;5.20;;
56893;SDS011;43392;50.078;13.704;2023-10-31T03:58:32;7.70;;;4.47;;
56893;SDS011;43392;50.078;13.704;2023-10-31T04:00:59;8.38;;;5.18;;
56893;SDS011;43392;50.078;13.704;2023-10-31T04:03:25;7.47;;;4.40;;
56893;SDS011;43392;50.078;13.704;2023-10-31T04:05:53;8.65;;;5.13;;
56893;SDS011;43392;50.078;13.704;2023-10-31T04:08:20;7.13;;;4.60;;
56893;SDS011;43392;50.078;13.704;2023-10-31T04:10:47;9.32;;;4.20;;
56893;SDS011;43392;50.078;13.704;2023-10-31T04:13:13;7.38;;;4.55;;
56893;SDS011;43392;50.078;13.704;2023-10-31T04:15:40;8.40;;;3.90;;
56893;SDS011;43392;50.078;13.704;2023-10-31T04:18:06;6.05;;;3.38;;
56893;SDS011;43392;50.078;13.704;2023-10-31T04:20:33;5.75;;;3.42;;
56893;SDS011;43392;50.078;13.704;2023-10-31T04:23:01;5.25;;;3.20;;
56893;SDS011;43392;50.078;13.704;2023-10-31T04:25:28;4.88;;;3.10;;
56893;SDS011;43392;50.078;13.704;2023-10-31T04:27:54;4.90;;;2.72;;
56893;SDS011;43392;50.078;13.704;2023-10-31T04:30:21;5.32;;;2.70;;
56893;SDS011;43392;50.078;13.704;2023-10-31T04:32:48;4.22;;;2.38;;
56893;SDS011;43392;50.078;13.704;2023-10-31T04:35:14;7.30;;;2.67;;
56893;SDS011;43392;50.078;13.704;2023-10-31T04:37:41;4.88;;;3.00;;
56893;SDS011;43392;50.078;13.704;2023-10-31T04:40:10;6.70;;;2.97;;
56893;SDS011;43392;50.078;13.704;2023-10-31T04:42:38;5.13;;;2.70;;
56893;SDS011;43392;50.078;13.704;2023-10-31T04:45:06;5.18;;;3.05;;
56893;SDS011;43392;50.078;13.704;2023-10-31T04:47:33;5.38;;;2.70;;
56893;SDS011;43392;50.078;13.704;2023-10-31T04:50:00;10.55;;;2.60;;
56893;SDS011;43392;50.078;13.704;2023-10-31T04:52:26;5.63;;;2.60;;
56893;SDS011;43392;50.078;13.704;2023-10-31T04:54:53;4.57;;;2.20;;
56893;SDS011;43392;50.078;13.704;2023-10-31T04:57:21;4.70;;;2.40;;
56893;SDS011;43392;50.078;13.704;2023-10-31T04:59:48;3.35;;;1.83;;
56893;SDS011;43392;50.078;13.704;2023-10-31T05:02:14;6.68;;;2.72;;
56893;SDS011;43392;50.078;13.704;2023-10-31T05:04:41;5.68;;;2.70;;
56893;SDS011;43392;50.078;13.704;2023-10-31T05:07:08;4.47;;;1.63;;
56893;SDS011;43392;50.078;13.704;2023-10-31T05:09:35;6.03;;;2.47;;
56893;SDS011;43392;50.078;13.704;2023-10-31T05:12:02;3.38;;;1.90;;
56893;SDS011;43392;50.078;13.704;2023-10-31T05:14:31;4.05;;;2.03;;
56893;SDS011;43392;50.078;13.704;2023-10-31T05:16:57;3.63;;;1.90;;
56893;SDS011;43392;50.078;13.704;2023-10-31T05:19:24;3.13;;;1.67;;
56893;SDS011;43392;50.078;13.704;2023-10-31T05:21:50;3.05;;;1.60;;
56893;SDS011;43392;50.078;13.704;2023-10-31T05:24:17;5.20;;;2.05;;
56893;SDS011;43392;50.078;13.704;2023-10-31T05:26:44;3.75;;;1.88;;
56893;SDS011;43392;50.078;13.704;2023-10-31T05:29:11;3.80;;;1.73;;
56893;SDS011;43392;50.078;13.704;2023-10-31T05:31:39;4.57;;;1.73;;
56893;SDS011;43392;50.078;13.704;2023-10-31T05:34:06;1.85;;;1.25;;
56893;SDS011;43392;50.078;13.704;2023-10-31T05:36:33;5.57;;;1.70;;
56893;SDS011;43392;50.078;13.704;2023-10-31T05:38:59;9.00;;;2.33;;
56893;SDS011;43392;50.078;13.704;2023-10-31T05:41:26;6.60;;;1.58;;
56893;SDS011;43392;50.078;13.704;2023-10-31T05:43:53;4.60;;;1.77;;
56893;SDS011;43392;50.078;13.704;2023-10-31T05:46:19;7.00;;;1.50;;
56893;SDS011;43392;50.078;13.704;2023-10-31T05:48:47;6.07;;;1.75;;
56893;SDS011;43392;50.078;13.704;2023-10-31T05:51:15;6.35;;;2.30;;
56893;SDS011;43392;50.078;13.704;2023-10-31T05:53:43;5.28;;;1.67;;
56893;SDS011;43392;50.078;13.704;2023-10-31T05:56:11;5.32;;;1.52;;
56893;SDS011;43392;50.078;13.704;2023-10-31T05:58:39;3.60;;;1.30;;
56893;SDS011;43392;50.078;13.704;2023-10-31T06:01:06;8.25;;;2.00;;
56893;SDS011;43392;50.078;13.704;2023-10-31T06:03:33;4.65;;;1.63;;
56893;SDS011;43392;50.078;13.704;2023-10-31T06:06:02;4.95;;;1.65;;
56893;SDS011;43392;50.078;13.704;2023-10-31T06:08:28;3.20;;;1.10;;
56893;SDS011;43392;50.078;13.704;2023-10-31T06:10:55;3.58;;;1.20;;
56893;SDS011;43392;50.078;13.704;2023-10-31T06:13:22;3.20;;;1.30;;
56893;SDS011;43392;50.078;13.704;2023-10-31T06:15:50;1.45;;;0.90;;
56893;SDS011;43392;50.078;13.704;2023-10-31T06:18:17;5.80;;;1.85;;
56893;SDS011;43392;50.078;13.704;2023-10-31T06:20:44;3.13;;;1.30;;
56893;SDS011;43392;50.078;13.704;2023-10-31T06:23:12;7.20;;;1.88;;
56893;SDS011;43392;50.078;13.704;2023-10-31T06:25:38;5.43;;;1.38;;
56893;SDS011;43392;50.078;13.704;2023-10-31T06:28:05;2.40;;;1.20;;
56893;SDS011;43392;50.078;13.704;2023-10-31T06:30:31;1.23;;;0.65;;
56893;SDS011;43392;50.078;13.704;2023-10-31T06:32:58;1.23;;;0.70;;
56893;SDS011;43392;50.078;13.704;2023-10-31T06:35:25;1.60;;;0.90;;
56893;SDS011;43392;50.078;13.704;2023-10-31T06:37:54;1.25;;;1.08;;
56893;SDS011;43392;50.078;13.704;2023-10-31T06:40:23;2.15;;;1.48;;
56893;SDS011;43392;50.078;13.704;2023-10-31T06:42:50;1.85;;;1.08;;
56893;SDS011;43392;50.078;13.704;2023-10-31T06:45:17;1.40;;;0.90;;
56893;SDS011;43392;50.078;13.704;2023-10-31T06:47:43;0.93;;;0.80;;
56893;SDS011;43392;50.078;13.704;2023-10-31T06:50:10;1.98;;;1.13;;
56893;SDS011;43392;50.078;13.704;2023-10-31T06:52:37;1.52;;;0.88;;
56893;SDS011;43392;50.078;13.704;2023-10-31T06:55:04;2.33;;;1.00;;
56893;SDS011;43392;50.078;13.704;2023-10-31T06:57:32;2.58;;;0.80;;
56893;SDS011;43392;50.078;13.704;2023-10-31T06:59:59;2.83;;;0.90;;
56893;SDS011;43392;50.078;13.704;2023-10-31T07:02:25;6.35;;;1.20;;
56893;SDS011;43392;50.078;13.704;2023-10-31T07:04:52;2.33;;;1.08;;
56893;SDS011;43392;50.078;13.704;2023-10-31T07:07:18;3.78;;;1.02;;
56893;SDS011;43392;50.078;13.704;2023-10-31T07:09:45;2.70;;;0.90;;
56893;SDS011;43392;50.078;13.704;2023-10-31T07:12:12;2.38;;;0.80;;
56893;SDS011;43392;50.078;13.704;2023-10-31T07:14:40;3.53;;;1.02;;
56893;SDS011;43392;50.078;13.704;2023-10-31T07:17:06;3.35;;;0.88;;
56893;SDS011;43392;50.078;13.704;2023-10-31T07:19:33;4.65;;;1.10;;
56893;SDS011;43392;50.078;13.704;2023-10-31T07:21:59;4.70;;;1.35;;
56893;SDS011;43392;50.078;13.704;2023-10-31T07:24:26;5.45;;;1.23;;
56893;SDS011;43392;50.078;13.704;2023-10-31T07:26:53;3.63;;;1.27;;
56893;SDS011;43392;50.078;13.704;2023-10-31T07:29:20;2.58;;;1.17;;
56893;SDS011;43392;50.078;13.704;2023-10-31T07:31:48;4.80;;;1.10;;
56893;SDS011;43392;50.078;13.704;2023-10-31T07:34:14;3.35;;;1.15;;
56893;SDS011;43392;50.078;13.704;2023-10-31T07:36:41;3.65;;;1.25;;
56893;SDS011;43392;50.078;13.704;2023-10-31T07:39:07;2.03;;;0.90;;
56893;SDS011;43392;50.078;13.704;2023-10-31T07:41:34;3.45;;;0.93;;
56893;SDS011;43392;50.078;13.704;2023-10-31T07:44:01;2.85;;;0.90;;
56893;SDS011;43392;50.078;13.704;2023-10-31T07:46:27;2.90;;;1.08;;
56893;SDS011;43392;50.078;13.704;2023-10-31T07:48:55;2.78;;;1.13;;
56893;SDS011;43392;50.078;13.704;2023-10-31T07:51:22;2.03;;;0.90;;
56893;SDS011;43392;50.078;13.704;2023-10-31T07:53:48;5.22;;;0.90;;
56893;SDS011;43392;50.078;13.704;2023-10-31T07:56:15;2.03;;;0.70;;
56893;SDS011;43392;50.078;13.704;2023-10-31T07:58:42;3.22;;;0.80;;
56893;SDS011;43392;50.078;13.704;2023-10-31T08:01:09;2.03;;;0.70;;
56893;SDS011;43392;50.078;13.704;2023-10-31T08:03:36;2.28;;;0.80;;
56893;SDS011;43392;50.078;13.704;2023-10-31T08:06:05;2.25;;;0.70;;
56893;SDS011;43392;50.078;13.704;2023-10-31T08:08:33;0.90;;;0.50;;
56893;SDS011;43392;50.078;13.704;2023-10-31T08:11:00;0.68;;;0.50;;
56893;SDS011;43392;50.078;13.704;2023-10-31T08:13:27;0.70;;;0.47;;
56893;SDS011;43392;50.078;13.704;2023-10-31T08:15:53;1.40;;;0.55;;
56893;SDS011;43392;50.078;13.704;2023-10-31T08:18:21;1.02;;;0.70;;
56893;SDS011;43392;50.078;13.704;2023-10-31T08:20:48;0.85;;;0.52;;
56893;SDS011;43392;50.078;13.704;2023-10-31T08:23:17;1.40;;;0.68;;
56893;SDS011;43392;50.078;13.704;2023-10-31T08:25:45;1.67;;;0.80;;
56893;SDS011;43392;50.078;13.704;2023-10-31T08:28:12;0.90;;;0.60;;
56893;SDS011;43392;50.078;13.704;2023-10-31T08:30:38;1.05;;;0.68;;
56893;SDS011;43392;50.078;13.704;2023-10-31T08:33:05;1.42;;;0.73;;
56893;SDS011;43392;50.078;13.704;2023-10-31T08:35:32;1.95;;;0.70;;
56893;SDS011;43392;50.078;13.704;2023-10-31T08:37:58;3.72;;;1.10;;
56893;SDS011;43392;50.078;13.704;2023-10-31T08:40:26;10.48;;;1.35;;
56893;SDS011;43392;50.078;13.704;2023-10-31T08:42:53;3.78;;;0.85;;
56893;SDS011;43392;50.078;13.704;2023-10-31T08:45:20;7.10;;;1.00;;
56893;SDS011;43392;50.078;13.704;2023-10-31T08:47:47;3.20;;;0.70;;
56893;SDS011;43392;50.078;13.704;2023-10-31T08:50:14;2.22;;;1.10;;
56893;SDS011;43392;50.078;13.704;2023-10-31T08:52:40;3.72;;;0.60;;
56893;SDS011;43392;50.078;13.704;2023-10-31T08:55:07;2.25;;;0.73;;
56893;SDS011;43392;50.078;13.704;2023-10-31T08:57:35;3.03;;;0.60;;
56893;SDS011;43392;50.078;13.704;2023-10-31T09:00:02;1.77;;;0.80;;
56893;SDS011;43392;50.078;13.704;2023-10-31T09:02:30;1.42;;;0.73;;
56893;SDS011;43392;50.078;13.704;2023-10-31T09:04:56;2.40;;;0.80;;
56893;SDS011;43392;50.078;13.704;2023-10-31T09:07:23;2.55;;;0.90;;
56893;SDS011;43392;50.078;13.704;2023-10-31T09:09:50;2.95;;;0.65;;
56893;SDS011;43392;50.078;13.704;2023-10-31T09:12:16;3.80;;;0.93;;
56893;SDS011;43392;50.078;13.704;2023-10-31T09:14:44;2.55;;;1.00;;
56893;SDS011;43392;50.078;13.704;2023-10-31T09:17:11;6.93;;;1.13;;
56893;SDS011;43392;50.078;13.704;2023-10-31T09:19:38;4.05;;;1.05;;
56893;SDS011;43392;50.078;13.704;2023-10-31T09:22:04;2.03;;;0.85;;
56893;SDS011;43392;50.078;13.704;2023-10-31T09:24:31;2.28;;;1.15;;
56893;SDS011;43392;50.078;13.704;2023-10-31T09:26:57;3.25;;;0.80;;
56893;SDS011;43392;50.078;13.704;2023-10-31T09:29:24;5.10;;;1.45;;
56893;SDS011;43392;50.078;13.704;2023-10-31T09:31:52;4.63;;;2.10;;
56893;SDS011;43392;50.078;13.704;2023-10-31T09:34:19;4.05;;;1.92;;
56893;SDS011;43392;50.078;13.704;2023-10-31T09:36:45;3.63;;;1.60;;
56893;SDS011;43392;50.078;13.704;2023-10-31T09:39:12;5.10;;;1.48;;
56893;SDS011;43392;50.078;13.704;2023-10-31T09:41:38;2.50;;;1.30;;
56893;SDS011;43392;50.078;13.704;2023-10-31T09:44:05;1.90;;;1.10;;
56893;SDS011;43392;50.078;13.704;2023-10-31T09:46:32;3.95;;;1.40;;
56893;SDS011;43392;50.078;13.704;2023-10-31T09:49:02;3.13;;;1.40;;
56893;SDS011;43392;50.078;13.704;2023-10-31T09:51:29;3.70;;;1.38;;
56893;SDS011;43392;50.078;13.704;2023-10-31T09:53:56;2.95;;;1.50;;
56893;SDS011;43392;50.078;13.704;2023-10-31T09:56:25;4.50;;;1.95;;
56893;SDS011;43392;50.078;13.704;2023-10-31T09:59:02;3.75;;;2.00;;
56893;SDS011;43392;50.078;13.704;2023-10-31T10:01:30;3.25;;;1.75;;
56893;SDS011;43392;50.078;13.704;2023-10-31T10:03:57;4.93;;;1.80;;
56893;SDS011;43392;50.078;13.704;2023-10-31T10:06:25;5.25;;;1.80;;
56893;SDS011;43392;50.078;13.704;2023-10-31T10:08:52;3.15;;;1.50;;
56893;SDS011;43392;50.078;13.704;2023-10-31T10:11:21;4.15;;;1.67;;
56893;SDS011;43392;50.078;13.704;2023-10-31T10:13:48;4.32;;;1.80;;
56893;SDS011;43392;50.078;13.704;2023-10-31T10:16:27;4.60;;;2.00;;
56893;SDS011;43392;50.078;13.704;2023-10-31T10:18:54;9.05;;;2.35;;
56893;SDS011;43392;50.078;13.704;2023-10-31T10:21:21;4.15;;;1.85;;
56893;SDS011;43392;50.078;13.704;2023-10-31T10:23:51;5.13;;;1.58;;
56893;SDS011;43392;50.078;13.704;2023-10-31T10:26:23;3.35;;;1.70;;
56893;SDS011;43392;50.078;13.704;2023-10-31T10:28:50;2.85;;;1.25;;
56893;SDS011;43392;50.078;13.704;2023-10-31T10:31:18;3.78;;;1.55;;
56893;SDS011;43392;50.078;13.704;2023-10-31T10:33:44;3.15;;;1.10;;
56893;SDS011;43392;50.078;13.704;2023-10-31T10:36:11;5.10;;;1.30;;
56893;SDS011;43392;50.078;13.704;2023-10-31T10:38:39;1.58;;;0.85;;
56893;SDS011;43392;50.078;13.704;2023-10-31T10:41:10;1.87;;;0.70;;
56893;SDS011;43392;50.078;13.704;2023-10-31T10:43:40;2.72;;;1.15;;
56893;SDS011;43392;50.078;13.704;2023-10-31T10:46:07;3.40;;;1.10;;
56893;SDS011;43392;50.078;13.704;2023-10-31T10:48:41;1.90;;;1.20;;
56893;SDS011;43392;50.078;13.704;2023-10-31T10:51:13;3.33;;;1.33;;
56893;SDS011;43392;50.078;13.704;2023-10-31T10:53:48;2.58;;;1.10;;
56893;SDS011;43392;50.078;13.704;2023-10-31T10:58:51;3.13;;;1.83;;
56893;SDS011;43392;50.078;13.704;2023-10-31T11:01:22;2.67;;;0.98;;
56893;SDS011;43392;50.078;13.704;2023-10-31T11:03:50;2.38;;;1.15;;
56893;SDS011;43392;50.078;13.704;2023-10-31T11:06:19;2.78;;;1.35;;
56893;SDS011;43392;50.078;13.704;2023-10-31T11:08:46;4.05;;;1.50;;
56893;SDS011;43392;50.078;13.704;2023-10-31T11:11:13;2.65;;;1.20;;
56893;SDS011;43392;50.078;13.704;2023-10-31T11:13:42;3.03;;;0.98;;
56893;SDS011;43392;50.078;13.704;2023-10-31T11:16:11;2.78;;;0.90;;
56893;SDS011;43392;50.078;13.704;2023-10-31T11:18:43;4.72;;;1.10;;
56893;SDS011;43392;50.078;13.704;2023-10-31T11:21:10;2.22;;;0.95;;
56893;SDS011;43392;50.078;13.704;2023-10-31T11:23:37;2.42;;;0.90;;
56893;SDS011;43392;50.078;13.704;2023-10-31T11:26:06;1.60;;;0.90;;
56893;SDS011;43392;50.078;13.704;2023-10-31T11:28:33;1.98;;;0.70;;
56893;SDS011;43392;50.078;13.704;2023-10-31T11:31:01;1.08;;;0.70;;
56893;SDS011;43392;50.078;13.704;2023-10-31T11:33:28;3.30;;;1.50;;
56893;SDS011;43392;50.078;13.704;2023-10-31T11:36:03;2.70;;;1.15;;
56893;SDS011;43392;50.078;13.704;2023-10-31T11:38:31;1.63;;;0.90;;
56893;SDS011;43392;50.078;13.704;2023-10-31T11:41:01;3.95;;;1.42;;
56893;SDS011;43392;50.078;13.704;2023-10-31T11:43:36;3.47;;;1.25;;
56893;SDS011;43392;50.078;13.704;2023-10-31T11:46:19;1.77;;;1.15;;
56893;SDS011;43392;50.078;13.704;2023-10-31T11:48:47;3.22;;;1.40;;
56893;SDS011;43392;50.078;13.704;2023-10-31T11:51:16;3.97;;;1.80;;
56893;SDS011;43392;50.078;13.704;2023-10-31T11:53:43;4.13;;;2.00;;
56893;SDS011;43392;50.078;13.704;2023-10-31T11:56:11;4.93;;;2.08;;
56893;SDS011;43392;50.078;13.704;2023-10-31T11:58:37;5.10;;;2.00;;
56893;SDS011;43392;50.078;13.704;2023-10-31T12:01:05;3.55;;;1.85;;
56893;SDS011;43392;50.078;13.704;2023-10-31T12:03:37;4.20;;;1.80;;
56893;SDS011;43392;50.078;13.704;2023-10-31T12:06:05;4.90;;;2.13;;
56893;SDS011;43392;50.078;13.704;2023-10-31T12:08:33;6.13;;;1.95;;
56893;SDS011;43392;50.078;13.704;2023-10-31T12:11:03;2.67;;;1.40;;
56893;SDS011;43392;50.078;13.704;2023-10-31T12:13:31;5.63;;;2.75;;
56893;SDS011;43392;50.078;13.704;2023-10-31T12:15:57;6.63;;;3.40;;
56893;SDS011;43392;50.078;13.704;2023-10-31T12:18:25;6.82;;;3.53;;
56893;SDS011;43392;50.078;13.704;2023-10-31T12:20:54;7.45;;;3.15;;
56893;SDS011;43392;50.078;13.704;2023-10-31T12:23:21;6.47;;;2.83;;
56893;SDS011;43392;50.078;13.704;2023-10-31T12:25:48;7.25;;;3.00;;
56893;SDS011;43392;50.078;13.704;2023-10-31T12:28:18;4.57;;;2.17;;
56893;SDS011;43392;50.078;13.704;2023-10-31T12:30:45;3.30;;;1.60;;
56893;SDS011;43392;50.078;13.704;2023-10-31T12:33:12;3.17;;;1.70;;
56893;SDS011;43392;50.078;13.704;2023-10-31T12:35:39;3.00;;;1.33;;
56893;SDS011;43392;50.078;13.704;2023-10-31T12:38:08;5.35;;;1.90;;
56893;SDS011;43392;50.078;13.704;2023-10-31T12:40:36;1.92;;;1.00;;
56893;SDS011;43392;50.078;13.704;2023-10-31T12:43:04;4.13;;;1.50;;
56893;SDS011;43392;50.078;13.704;2023-10-31T12:45:31;3.72;;;1.70;;
56893;SDS011;43392;50.078;13.704;2023-10-31T12:48:01;3.92;;;1.60;;
56893;SDS011;43392;50.078;13.704;2023-10-31T12:50:29;3.60;;;1.80;;
56893;SDS011;43392;50.078;13.704;2023-10-31T12:52:55;4.97;;;2.30;;
56893;SDS011;43392;50.078;13.704;2023-10-31T12:55:25;5.78;;;2.63;;
56893;SDS011;43392;50.078;13.704;2023-10-31T12:57:53;5.70;;;1.77;;
56893;SDS011;43392;50.078;13.704;2023-10-31T13:00:21;5.63;;;1.95;;
56893;SDS011;43392;50.078;13.704;2023-10-31T13:02:50;2.73;;;1.20;;
56893;SDS011;43392;50.078;13.704;2023-10-31T13:05:18;3.42;;;1.40;;
56893;SDS011;43392;50.078;13.704;2023-10-31T13:07:48;3.60;;;1.02;;
56893;SDS011;43392;50.078;13.704;2023-10-31T13:10:16;2.90;;;1.10;;
56893;SDS011;43392;50.078;13.704;2023-10-31T13:12:45;1.90;;;1.10;;
56893;SDS011;43392;50.078;13.704;2023-10-31T13:15:12;3.90;;;1.90;;
56893;SDS011;43392;50.078;13.704;2023-10-31T13:17:40;3.28;;;1.67;;
56893;SDS011;43392;50.078;13.704;2023-10-31T13:20:09;1.65;;;1.00;;
56893;SDS011;43392;50.078;13.704;2023-10-31T13:22:37;1.38;;;0.90;;
56893;SDS011;43392;50.078;13.704;2023-10-31T13:25:04;2.85;;;1.00;;
56893;SDS011;43392;50.078;13.704;2023-10-31T13:27:32;2.38;;;1.17;;
56893;SDS011;43392;50.078;13.704;2023-10-31T13:30:01;1.25;;;0.60;;
56893;SDS011;43392;50.078;13.704;2023-10-31T13:32:28;0.75;;;0.60;;
56893;SDS011;43392;50.078;13.704;2023-10-31T13:34:55;2.70;;;0.82;;
56893;SDS011;43392;50.078;13.704;2023-10-31T13:37:22;1.52;;;0.80;;
56893;SDS011;43392;50.078;13.704;2023-10-31T13:39:48;1.17;;;0.80;;
56893;SDS011;43392;50.078;13.704;2023-10-31T13:42:15;2.95;;;1.10;;
56893;SDS011;43392;50.078;13.704;2023-10-31T13:44:42;2.67;;;1.10;;
56893;SDS011;43392;50.078;13.704;2023-10-31T13:47:11;6.45;;;1.00;;
56893;SDS011;43392;50.078;13.704;2023-10-31T13:49:37;4.10;;;1.48;;
56893;SDS011;43392;50.078;13.704;2023-10-31T13:52:04;1.42;;;0.70;;
56893;SDS011;43392;50.078;13.704;2023-10-31T13:54:32;8.13;;;2.88;;
56893;SDS011;43392;50.078;13.704;2023-10-31T13:56:58;3.95;;;1.70;;
56893;SDS011;43392;50.078;13.704;2023-10-31T13:59:25;3.83;;;1.45;;
56893;SDS011;43392;50.078;13.704;2023-10-31T14:01:52;1.35;;;1.00;;
56893;SDS011;43392;50.078;13.704;2023-10-31T14:04:20;2.92;;;1.05;;
56893;SDS011;43392;50.078;13.704;2023-10-31T14:06:47;2.13;;;1.00;;
56893;SDS011;43392;50.078;13.704;2023-10-31T14:09:14;0.77;;;0.70;;
56893;SDS011;43392;50.078;13.704;2023-10-31T14:11:41;2.63;;;1.10;;
56893;SDS011;43392;50.078;13.704;2023-10-31T14:14:08;2.15;;;1.35;;
56893;SDS011;43392;50.078;13.704;2023-10-31T14:16:35;2.33;;;1.10;;
56893;SDS011;43392;50.078;13.704;2023-10-31T14:19:03;2.65;;;1.23;;
56893;SDS011;43392;50.078;13.704;2023-10-31T14:21:33;2.80;;;1.20;;
56893;SDS011;43392;50.078;13.704;2023-10-31T14:24:00;3.15;;;1.40;;
56893;SDS011;43392;50.078;13.704;2023-10-31T14:26:28;4.78;;;1.60;;
56893;SDS011;43392;50.078;13.704;2023-10-31T14:28:58;2.95;;;1.20;;
56893;SDS011;43392;50.078;13.704;2023-10-31T14:31:24;2.40;;;1.13;;